sensor_id;sensor_type;location;lat;lon;timestamp;P1;durP1;ratioP1;P2;durP2;ratioP2
77400;SDS011;66855;45.414;11.082;2023-02-20T00:00:33;137.50;;;53.60;;
77400;SDS011;66855;45.414;11.082;2023-02-20T00:03:03;124.50;;;50.40;;
77400;SDS011;66855;45.414;11.082;2023-02-20T00:05:30;127.80;;;53.30;;
77400;SDS011;66855;45.414;11.082;2023-02-20T00:07:57;131.30;;;51.90;;
77400;SDS011;66855;45.414;11.082;2023-02-20T00:10:24;132.60;;;52.20;;
77400;SDS011;66855;45.414;11.082;2023-02-20T00:12:52;133.10;;;53.60;;
77400;SDS011;66855;45.414;11.082;2023-02-20T00:15:19;125.10;;;52.20;;
77400;SDS011;66855;45.414;11.082;2023-02-20T00:17:46;139.90;;;55.20;;
77400;SDS011;66855;45.414;11.082;2023-02-20T00:20:14;134.20;;;51.60;;
77400;SDS011;66855;45.414;11.082;2023-02-20T00:22:48;132.30;;;52.60;;
77400;SDS011;66855;45.414;11.082;2023-02-20T00:25:16;133.30;;;52.60;;
77400;SDS011;66855;45.414;11.082;2023-02-20T00:27:44;131.80;;;53.40;;
77400;SDS011;66855;45.414;11.082;2023-02-20T00:30:17;127.90;;;52.40;;
77400;SDS011;66855;45.414;11.082;2023-02-20T00:32:51;127.00;;;50.40;;
77400;SDS011;66855;45.414;11.082;2023-02-20T00:35:20;135.90;;;51.60;;
77400;SDS011;66855;45.414;11.082;2023-02-20T00:37:48;133.10;;;53.00;;
77400;SDS011;66855;45.414;11.082;2023-02-20T00:40:15;131.40;;;54.10;;
77400;SDS011;66855;45.414;11.082;2023-02-20T00:42:43;132.80;;;52.30;;
77400;SDS011;66855;45.414;11.082;2023-02-20T00:45:11;132.20;;;53.10;;
77400;SDS011;66855;45.414;11.082;2023-02-20T00:47:39;129.90;;;56.90;;
77400;SDS011;66855;45.414;11.082;2023-02-20T00:50:07;134.10;;;54.00;;
77400;SDS011;66855;45.414;11.082;2023-02-20T00:52:34;132.10;;;53.00;;
77400;SDS011;66855;45.414;11.082;2023-02-20T00:55:02;124.00;;;51.40;;
77400;SDS011;66855;45.414;11.082;2023-02-20T00:57:29;134.90;;;53.40;;
77400;SDS011;66855;45.414;11.082;2023-02-20T00:59:56;123.10;;;51.10;;
77400;SDS011;66855;45.414;11.082;2023-02-20T01:02:23;129.60;;;52.20;;
77400;SDS011;66855;45.414;11.082;2023-02-20T01:04:50;132.30;;;52.80;;
77400;SDS011;66855;45.414;11.082;2023-02-20T01:07:17;132.60;;;51.60;;
77400;SDS011;66855;45.414;11.082;2023-02-20T01:09:44;129.90;;;51.50;;
77400;SDS011;66855;45.414;11.082;2023-02-20T01:12:14;130.80;;;52.20;;
77400;SDS011;66855;45.414;11.082;2023-02-20T01:14:41;134.70;;;52.90;;
77400;SDS011;66855;45.414;11.082;2023-02-20T01:17:07;132.40;;;53.30;;
77400;SDS011;66855;45.414;11.082;2023-02-20T01:19:34;125.60;;;51.50;;
77400;SDS011;66855;45.414;11.082;2023-02-20T01:22:01;123.40;;;50.70;;
77400;SDS011;66855;45.414;11.082;2023-02-20T01:24:31;134.30;;;54.20;;
77400;SDS011;66855;45.414;11.082;2023-02-20T01:26:58;136.00;;;54.80;;
77400;SDS011;66855;45.414;11.082;2023-02-20T01:29:25;127.00;;;50.80;;
77400;SDS011;66855;45.414;11.082;2023-02-20T01:31:52;136.80;;;58.10;;
77400;SDS011;66855;45.414;11.082;2023-02-20T01:34:19;130.90;;;52.20;;
77400;SDS011;66855;45.414;11.082;2023-02-20T01:36:48;133.80;;;55.30;;
77400;SDS011;66855;45.414;11.082;2023-02-20T01:39:22;135.70;;;54.30;;
77400;SDS011;66855;45.414;11.082;2023-02-20T01:41:53;135.70;;;54.60;;
77400;SDS011;66855;45.414;11.082;2023-02-20T01:44:32;130.30;;;54.50;;
77400;SDS011;66855;45.414;11.082;2023-02-20T01:47:04;127.30;;;54.00;;
77400;SDS011;66855;45.414;11.082;2023-02-20T01:49:34;140.00;;;57.00;;
77400;SDS011;66855;45.414;11.082;2023-02-20T01:52:09;120.50;;;51.30;;
77400;SDS011;66855;45.414;11.082;2023-02-20T01:54:44;138.70;;;55.00;;
77400;SDS011;66855;45.414;11.082;2023-02-20T01:57:16;130.40;;;52.60;;
77400;SDS011;66855;45.414;11.082;2023-02-20T01:59:46;130.50;;;54.10;;
77400;SDS011;66855;45.414;11.082;2023-02-20T02:02:14;132.20;;;54.70;;
77400;SDS011;66855;45.414;11.082;2023-02-20T02:04:41;129.90;;;54.60;;
77400;SDS011;66855;45.414;11.082;2023-02-20T02:07:10;118.50;;;49.20;;
77400;SDS011;66855;45.414;11.082;2023-02-20T02:09:38;130.00;;;52.10;;
77400;SDS011;66855;45.414;11.082;2023-02-20T02:12:14;135.70;;;54.00;;
77400;SDS011;66855;45.414;11.082;2023-02-20T02:14:40;126.30;;;51.90;;
77400;SDS011;66855;45.414;11.082;2023-02-20T02:26:16;125.40;;;52.00;;
77400;SDS011;66855;45.414;11.082;2023-02-20T02:29:05;124.80;;;50.20;;
77400;SDS011;66855;45.414;11.082;2023-02-20T02:32:07;134.00;;;52.50;;
77400;SDS011;66855;45.414;11.082;2023-02-20T02:40:02;129.10;;;53.70;;
77400;SDS011;66855;45.414;11.082;2023-02-20T02:42:50;131.00;;;54.60;;
77400;SDS011;66855;45.414;11.082;2023-02-20T02:45:32;121.40;;;51.00;;
77400;SDS011;66855;45.414;11.082;2023-02-20T02:48:05;122.90;;;50.10;;
77400;SDS011;66855;45.414;11.082;2023-02-20T02:50:38;135.80;;;54.20;;
77400;SDS011;66855;45.414;11.082;2023-02-20T02:53:07;121.00;;;48.60;;
77400;SDS011;66855;45.414;11.082;2023-02-20T02:55:35;133.60;;;52.70;;
77400;SDS011;66855;45.414;11.082;2023-02-20T02:58:03;126.60;;;50.50;;
77400;SDS011;66855;45.414;11.082;2023-02-20T03:00:48;128.60;;;54.70;;
77400;SDS011;66855;45.414;11.082;2023-02-20T03:03:18;132.00;;;54.40;;
77400;SDS011;66855;45.414;11.082;2023-02-20T03:05:50;126.90;;;52.00;;
77400;SDS011;66855;45.414;11.082;2023-02-20T03:08:40;131.40;;;52.90;;
77400;SDS011;66855;45.414;11.082;2023-02-20T03:11:24;129.70;;;51.10;;
77400;SDS011;66855;45.414;11.082;2023-02-20T03:13:58;126.30;;;51.90;;
77400;SDS011;66855;45.414;11.082;2023-02-20T03:16:57;126.30;;;50.40;;
77400;SDS011;66855;45.414;11.082;2023-02-20T03:19:32;137.70;;;54.30;;
77400;SDS011;66855;45.414;11.082;2023-02-20T03:22:15;134.30;;;56.10;;
77400;SDS011;66855;45.414;11.082;2023-02-20T03:24:45;128.40;;;53.20;;
77400;SDS011;66855;45.414;11.082;2023-02-20T03:27:38;129.00;;;52.50;;
77400;SDS011;66855;45.414;11.082;2023-02-20T03:30:10;129.00;;;51.20;;
77400;SDS011;66855;45.414;11.082;2023-02-20T03:32:40;124.30;;;50.30;;
77400;SDS011;66855;45.414;11.082;2023-02-20T03:35:28;116.40;;;47.40;;
77400;SDS011;66855;45.414;11.082;2023-02-20T03:38:16;118.40;;;48.30;;
77400;SDS011;66855;45.414;11.082;2023-02-20T03:41:03;129.50;;;51.10;;
77400;SDS011;66855;45.414;11.082;2023-02-20T03:43:48;125.70;;;51.70;;
77400;SDS011;66855;45.414;11.082;2023-02-20T03:46:19;119.20;;;49.30;;
77400;SDS011;66855;45.414;11.082;2023-02-20T03:48:53;121.50;;;49.80;;
77400;SDS011;66855;45.414;11.082;2023-02-20T03:51:23;119.20;;;48.90;;
77400;SDS011;66855;45.414;11.082;2023-02-20T03:53:55;124.10;;;49.80;;
77400;SDS011;66855;45.414;11.082;2023-02-20T03:56:24;124.70;;;50.50;;
77400;SDS011;66855;45.414;11.082;2023-02-20T03:58:54;116.10;;;47.70;;
77400;SDS011;66855;45.414;11.082;2023-02-20T04:01:25;119.00;;;48.30;;
77400;SDS011;66855;45.414;11.082;2023-02-20T04:03:53;119.50;;;47.50;;
77400;SDS011;66855;45.414;11.082;2023-02-20T04:06:23;126.80;;;50.20;;
77400;SDS011;66855;45.414;11.082;2023-02-20T04:14:00;110.70;;;45.80;;
77400;SDS011;66855;45.414;11.082;2023-02-20T04:16:28;112.70;;;44.40;;
77400;SDS011;66855;45.414;11.082;2023-02-20T04:18:55;118.30;;;48.00;;
77400;SDS011;66855;45.414;11.082;2023-02-20T04:21:24;114.70;;;47.00;;
77400;SDS011;66855;45.414;11.082;2023-02-20T04:24:02;108.40;;;47.50;;
77400;SDS011;66855;45.414;11.082;2023-02-20T04:26:34;120.60;;;45.20;;
77400;SDS011;66855;45.414;11.082;2023-02-20T04:29:04;106.70;;;44.60;;
77400;SDS011;66855;45.414;11.082;2023-02-20T04:31:32;111.90;;;44.70;;
77400;SDS011;66855;45.414;11.082;2023-02-20T04:33:59;101.40;;;42.40;;
77400;SDS011;66855;45.414;11.082;2023-02-20T04:36:26;100.30;;;43.20;;
77400;SDS011;66855;45.414;11.082;2023-02-20T04:38:55;109.10;;;44.20;;
77400;SDS011;66855;45.414;11.082;2023-02-20T04:41:24;104.30;;;44.10;;
77400;SDS011;66855;45.414;11.082;2023-02-20T04:43:52;97.40;;;39.90;;
77400;SDS011;66855;45.414;11.082;2023-02-20T04:46:42;80.80;;;34.80;;
77400;SDS011;66855;45.414;11.082;2023-02-20T04:49:09;56.30;;;25.10;;
77400;SDS011;66855;45.414;11.082;2023-02-20T04:51:36;51.30;;;22.60;;
77400;SDS011;66855;45.414;11.082;2023-02-20T04:54:03;48.40;;;22.10;;
77400;SDS011;66855;45.414;11.082;2023-02-20T04:56:30;47.10;;;19.90;;
77400;SDS011;66855;45.414;11.082;2023-02-20T04:59:02;42.60;;;19.50;;
77400;SDS011;66855;45.414;11.082;2023-02-20T05:01:31;35.40;;;15.60;;
77400;SDS011;66855;45.414;11.082;2023-02-20T05:03:57;37.50;;;17.10;;
77400;SDS011;66855;45.414;11.082;2023-02-20T05:06:24;33.60;;;15.50;;
77400;SDS011;66855;45.414;11.082;2023-02-20T05:08:51;35.70;;;16.40;;
77400;SDS011;66855;45.414;11.082;2023-02-20T05:11:18;41.40;;;18.60;;
77400;SDS011;66855;45.414;11.082;2023-02-20T05:13:45;38.60;;;18.00;;
77400;SDS011;66855;45.414;11.082;2023-02-20T05:16:12;39.80;;;18.50;;
77400;SDS011;66855;45.414;11.082;2023-02-20T05:18:41;36.80;;;17.10;;
77400;SDS011;66855;45.414;11.082;2023-02-20T05:21:11;48.50;;;20.70;;
77400;SDS011;66855;45.414;11.082;2023-02-20T05:23:57;68.40;;;28.30;;
77400;SDS011;66855;45.414;11.082;2023-02-20T05:26:24;68.50;;;28.50;;
77400;SDS011;66855;45.414;11.082;2023-02-20T05:28:51;62.70;;;27.40;;
77400;SDS011;66855;45.414;11.082;2023-02-20T05:31:18;69.40;;;30.90;;
77400;SDS011;66855;45.414;11.082;2023-02-20T05:33:45;73.00;;;31.00;;
77400;SDS011;66855;45.414;11.082;2023-02-20T05:36:11;69.40;;;31.50;;
77400;SDS011;66855;45.414;11.082;2023-02-20T05:38:39;62.80;;;28.40;;
77400;SDS011;66855;45.414;11.082;2023-02-20T05:41:07;60.60;;;27.20;;
77400;SDS011;66855;45.414;11.082;2023-02-20T05:43:34;78.10;;;30.80;;
77400;SDS011;66855;45.414;11.082;2023-02-20T05:46:00;62.50;;;27.70;;
77400;SDS011;66855;45.414;11.082;2023-02-20T05:48:27;73.60;;;32.70;;
77400;SDS011;66855;45.414;11.082;2023-02-20T05:50:54;79.40;;;32.80;;
77400;SDS011;66855;45.414;11.082;2023-02-20T05:53:21;77.40;;;33.00;;
77400;SDS011;66855;45.414;11.082;2023-02-20T05:55:47;79.80;;;33.90;;
77400;SDS011;66855;45.414;11.082;2023-02-20T05:58:14;80.90;;;34.50;;
77400;SDS011;66855;45.414;11.082;2023-02-20T06:00:41;87.50;;;37.10;;
77400;SDS011;66855;45.414;11.082;2023-02-20T06:03:08;89.80;;;36.50;;
77400;SDS011;66855;45.414;11.082;2023-02-20T06:05:35;80.60;;;35.20;;
77400;SDS011;66855;45.414;11.082;2023-02-20T06:08:02;83.90;;;36.50;;
77400;SDS011;66855;45.414;11.082;2023-02-20T06:10:30;86.30;;;39.20;;
77400;SDS011;66855;45.414;11.082;2023-02-20T06:12:57;85.40;;;36.20;;
77400;SDS011;66855;45.414;11.082;2023-02-20T06:15:24;89.50;;;41.30;;
77400;SDS011;66855;45.414;11.082;2023-02-20T06:17:51;93.20;;;40.80;;
77400;SDS011;66855;45.414;11.082;2023-02-20T06:20:18;94.20;;;40.40;;
77400;SDS011;66855;45.414;11.082;2023-02-20T06:22:47;101.70;;;40.20;;
77400;SDS011;66855;45.414;11.082;2023-02-20T06:25:14;100.70;;;42.80;;
77400;SDS011;66855;45.414;11.082;2023-02-20T06:27:41;105.00;;;43.40;;
77400;SDS011;66855;45.414;11.082;2023-02-20T06:30:08;99.20;;;41.90;;
77400;SDS011;66855;45.414;11.082;2023-02-20T06:32:36;99.50;;;43.00;;
77400;SDS011;66855;45.414;11.082;2023-02-20T06:35:03;109.70;;;43.00;;
77400;SDS011;66855;45.414;11.082;2023-02-20T06:37:31;104.90;;;42.10;;
77400;SDS011;66855;45.414;11.082;2023-02-20T06:39:57;101.90;;;43.80;;
77400;SDS011;66855;45.414;11.082;2023-02-20T06:42:24;98.00;;;43.00;;
77400;SDS011;66855;45.414;11.082;2023-02-20T06:44:51;104.30;;;44.50;;
77400;SDS011;66855;45.414;11.082;2023-02-20T06:47:18;106.40;;;46.10;;
77400;SDS011;66855;45.414;11.082;2023-02-20T06:49:45;99.50;;;41.90;;
77400;SDS011;66855;45.414;11.082;2023-02-20T06:52:13;101.00;;;43.10;;
77400;SDS011;66855;45.414;11.082;2023-02-20T06:54:40;105.30;;;45.40;;
77400;SDS011;66855;45.414;11.082;2023-02-20T06:57:08;98.90;;;45.10;;
77400;SDS011;66855;45.414;11.082;2023-02-20T06:59:35;107.70;;;45.60;;
77400;SDS011;66855;45.414;11.082;2023-02-20T07:02:10;107.20;;;47.60;;
77400;SDS011;66855;45.414;11.082;2023-02-20T07:04:37;113.00;;;47.10;;
77400;SDS011;66855;45.414;11.082;2023-02-20T07:07:04;111.60;;;47.10;;
77400;SDS011;66855;45.414;11.082;2023-02-20T07:09:31;110.10;;;47.20;;
77400;SDS011;66855;45.414;11.082;2023-02-20T07:11:58;111.50;;;49.80;;
77400;SDS011;66855;45.414;11.082;2023-02-20T07:14:25;110.90;;;47.50;;
77400;SDS011;66855;45.414;11.082;2023-02-20T07:16:52;114.10;;;48.50;;
77400;SDS011;66855;45.414;11.082;2023-02-20T07:19:19;120.80;;;49.30;;
77400;SDS011;66855;45.414;11.082;2023-02-20T07:21:46;127.70;;;52.00;;
77400;SDS011;66855;45.414;11.082;2023-02-20T07:24:14;113.00;;;47.60;;
77400;SDS011;66855;45.414;11.082;2023-02-20T07:26:41;123.40;;;51.50;;
77400;SDS011;66855;45.414;11.082;2023-02-20T07:29:08;107.00;;;47.10;;
77400;SDS011;66855;45.414;11.082;2023-02-20T07:31:36;113.60;;;47.30;;
77400;SDS011;66855;45.414;11.082;2023-02-20T07:34:05;123.90;;;51.80;;
77400;SDS011;66855;45.414;11.082;2023-02-20T07:36:35;121.20;;;52.00;;
77400;SDS011;66855;45.414;11.082;2023-02-20T07:39:03;120.70;;;50.60;;
77400;SDS011;66855;45.414;11.082;2023-02-20T07:41:32;119.10;;;53.20;;
77400;SDS011;66855;45.414;11.082;2023-02-20T07:44:03;118.80;;;54.20;;
77400;SDS011;66855;45.414;11.082;2023-02-20T07:46:30;122.10;;;51.60;;
77400;SDS011;66855;45.414;11.082;2023-02-20T07:49:03;122.70;;;52.20;;
77400;SDS011;66855;45.414;11.082;2023-02-20T07:51:31;116.90;;;52.00;;
77400;SDS011;66855;45.414;11.082;2023-02-20T07:53:58;116.90;;;51.70;;
77400;SDS011;66855;45.414;11.082;2023-02-20T07:56:25;125.00;;;52.90;;
77400;SDS011;66855;45.414;11.082;2023-02-20T07:58:53;121.80;;;49.40;;
77400;SDS011;66855;45.414;11.082;2023-02-20T08:01:20;115.90;;;50.30;;
77400;SDS011;66855;45.414;11.082;2023-02-20T08:03:47;122.40;;;50.80;;
77400;SDS011;66855;45.414;11.082;2023-02-20T08:06:17;117.00;;;50.70;;
77400;SDS011;66855;45.414;11.082;2023-02-20T08:08:48;110.50;;;49.80;;
77400;SDS011;66855;45.414;11.082;2023-02-20T08:11:16;123.70;;;51.00;;
77400;SDS011;66855;45.414;11.082;2023-02-20T08:13:44;115.00;;;50.40;;
77400;SDS011;66855;45.414;11.082;2023-02-20T08:16:11;122.00;;;51.20;;
77400;SDS011;66855;45.414;11.082;2023-02-20T08:18:39;112.00;;;47.90;;
77400;SDS011;66855;45.414;11.082;2023-02-20T08:21:06;108.70;;;47.90;;
77400;SDS011;66855;45.414;11.082;2023-02-20T08:23:32;119.90;;;52.80;;
77400;SDS011;66855;45.414;11.082;2023-02-20T08:25:59;116.60;;;49.60;;
77400;SDS011;66855;45.414;11.082;2023-02-20T08:28:28;118.10;;;50.30;;
77400;SDS011;66855;45.414;11.082;2023-02-20T08:30:55;118.10;;;53.00;;
77400;SDS011;66855;45.414;11.082;2023-02-20T08:33:23;118.10;;;52.60;;
77400;SDS011;66855;45.414;11.082;2023-02-20T08:35:49;108.60;;;49.60;;
77400;SDS011;66855;45.414;11.082;2023-02-20T08:38:24;95.40;;;44.70;;
77400;SDS011;66855;45.414;11.082;2023-02-20T08:40:54;98.30;;;43.70;;
77400;SDS011;66855;45.414;11.082;2023-02-20T08:43:21;100.10;;;44.10;;
77400;SDS011;66855;45.414;11.082;2023-02-20T08:45:48;88.70;;;41.70;;
77400;SDS011;66855;45.414;11.082;2023-02-20T08:48:15;96.70;;;43.80;;
77400;SDS011;66855;45.414;11.082;2023-02-20T08:50:42;95.90;;;44.70;;
77400;SDS011;66855;45.414;11.082;2023-02-20T08:53:10;105.00;;;42.10;;
77400;SDS011;66855;45.414;11.082;2023-02-20T08:55:40;91.80;;;41.60;;
77400;SDS011;66855;45.414;11.082;2023-02-20T08:58:07;89.00;;;41.30;;
77400;SDS011;66855;45.414;11.082;2023-02-20T09:00:34;94.90;;;43.00;;
77400;SDS011;66855;45.414;11.082;2023-02-20T09:03:01;99.90;;;44.40;;
77400;SDS011;66855;45.414;11.082;2023-02-20T09:05:33;102.00;;;45.10;;
77400;SDS011;66855;45.414;11.082;2023-02-20T09:08:02;100.20;;;45.60;;
77400;SDS011;66855;45.414;11.082;2023-02-20T09:10:29;110.50;;;47.30;;
77400;SDS011;66855;45.414;11.082;2023-02-20T09:12:56;98.60;;;46.50;;
77400;SDS011;66855;45.414;11.082;2023-02-20T09:15:23;102.10;;;46.10;;
77400;SDS011;66855;45.414;11.082;2023-02-20T09:17:51;98.70;;;44.60;;
77400;SDS011;66855;45.414;11.082;2023-02-20T09:20:19;104.20;;;45.50;;
77400;SDS011;66855;45.414;11.082;2023-02-20T09:22:47;98.10;;;44.00;;
77400;SDS011;66855;45.414;11.082;2023-02-20T09:25:16;101.20;;;44.30;;
77400;SDS011;66855;45.414;11.082;2023-02-20T09:27:44;94.70;;;43.30;;
77400;SDS011;66855;45.414;11.082;2023-02-20T09:30:14;98.50;;;43.30;;
77400;SDS011;66855;45.414;11.082;2023-02-20T09:32:48;100.20;;;46.20;;
77400;SDS011;66855;45.414;11.082;2023-02-20T09:35:16;99.50;;;46.10;;
77400;SDS011;66855;45.414;11.082;2023-02-20T09:40:12;94.50;;;41.80;;
77400;SDS011;66855;45.414;11.082;2023-02-20T09:45:20;97.80;;;45.10;;
77400;SDS011;66855;45.414;11.082;2023-02-20T09:48:00;92.10;;;42.50;;
77400;SDS011;66855;45.414;11.082;2023-02-20T09:50:46;94.80;;;43.70;;
77400;SDS011;66855;45.414;11.082;2023-02-20T09:53:26;91.80;;;43.10;;
77400;SDS011;66855;45.414;11.082;2023-02-20T09:56:22;86.50;;;40.00;;
77400;SDS011;66855;45.414;11.082;2023-02-20T10:01:38;86.20;;;39.70;;
77400;SDS011;66855;45.414;11.082;2023-02-20T10:04:16;85.20;;;39.20;;
77400;SDS011;66855;45.414;11.082;2023-02-20T10:06:47;79.60;;;38.60;;
77400;SDS011;66855;45.414;11.082;2023-02-20T10:09:16;88.30;;;40.00;;
77400;SDS011;66855;45.414;11.082;2023-02-20T10:22:34;79.20;;;37.90;;
77400;SDS011;66855;45.414;11.082;2023-02-20T10:26:07;74.80;;;35.10;;
77400;SDS011;66855;45.414;11.082;2023-02-20T10:28:20;63.10;;;31.60;;
77400;SDS011;66855;45.414;11.082;2023-02-20T10:33:39;44.60;;;23.20;;
77400;SDS011;66855;45.414;11.082;2023-02-20T10:41:39;38.50;;;21.10;;
77400;SDS011;66855;45.414;11.082;2023-02-20T10:44:10;38.80;;;19.80;;
77400;SDS011;66855;45.414;11.082;2023-02-20T10:49:45;43.90;;;23.20;;
77400;SDS011;66855;45.414;11.082;2023-02-20T10:52:21;44.70;;;23.10;;
77400;SDS011;66855;45.414;11.082;2023-02-20T10:57:50;47.50;;;22.30;;
77400;SDS011;66855;45.414;11.082;2023-02-20T11:00:32;46.50;;;23.40;;
77400;SDS011;66855;45.414;11.082;2023-02-20T11:03:06;46.50;;;24.90;;
77400;SDS011;66855;45.414;11.082;2023-02-20T11:05:39;51.60;;;26.20;;
77400;SDS011;66855;45.414;11.082;2023-02-20T11:08:08;54.10;;;27.70;;
77400;SDS011;66855;45.414;11.082;2023-02-20T11:10:35;56.20;;;29.40;;
77400;SDS011;66855;45.414;11.082;2023-02-20T11:13:04;54.20;;;27.80;;
77400;SDS011;66855;45.414;11.082;2023-02-20T11:15:35;56.10;;;29.50;;
77400;SDS011;66855;45.414;11.082;2023-02-20T11:18:03;53.00;;;27.10;;
77400;SDS011;66855;45.414;11.082;2023-02-20T11:20:42;52.80;;;27.80;;
77400;SDS011;66855;45.414;11.082;2023-02-20T11:29:01;48.30;;;23.80;;
77400;SDS011;66855;45.414;11.082;2023-02-20T11:31:30;41.60;;;22.80;;
77400;SDS011;66855;45.414;11.082;2023-02-20T11:33:58;46.50;;;25.00;;
77400;SDS011;66855;45.414;11.082;2023-02-20T11:36:27;49.00;;;24.90;;
77400;SDS011;66855;45.414;11.082;2023-02-20T11:39:00;50.10;;;26.60;;
77400;SDS011;66855;45.414;11.082;2023-02-20T11:41:35;56.10;;;30.00;;
77400;SDS011;66855;45.414;11.082;2023-02-20T11:44:15;45.50;;;24.50;;
77400;SDS011;66855;45.414;11.082;2023-02-20T11:46:45;49.90;;;27.20;;
77400;SDS011;66855;45.414;11.082;2023-02-20T11:49:22;54.10;;;26.70;;
77400;SDS011;66855;45.414;11.082;2023-02-20T11:51:50;52.60;;;27.20;;
77400;SDS011;66855;45.414;11.082;2023-02-20T11:54:21;50.20;;;26.30;;
77400;SDS011;66855;45.414;11.082;2023-02-20T11:56:53;49.30;;;25.60;;
77400;SDS011;66855;45.414;11.082;2023-02-20T11:59:41;54.40;;;26.90;;
77400;SDS011;66855;45.414;11.082;2023-02-20T12:07:36;55.30;;;27.80;;
77400;SDS011;66855;45.414;11.082;2023-02-20T12:12:52;50.60;;;27.30;;
77400;SDS011;66855;45.414;11.082;2023-02-20T12:15:22;56.30;;;29.00;;
77400;SDS011;66855;45.414;11.082;2023-02-20T12:21:14;56.90;;;28.80;;
77400;SDS011;66855;45.414;11.082;2023-02-20T12:23:43;56.50;;;30.20;;
77400;SDS011;66855;45.414;11.082;2023-02-20T12:26:20;61.00;;;30.00;;
77400;SDS011;66855;45.414;11.082;2023-02-20T12:29:09;57.30;;;30.40;;
77400;SDS011;66855;45.414;11.082;2023-02-20T12:37:23;62.60;;;31.00;;
77400;SDS011;66855;45.414;11.082;2023-02-20T12:40:18;64.50;;;32.10;;
77400;SDS011;66855;45.414;11.082;2023-02-20T12:43:11;61.00;;;29.50;;
77400;SDS011;66855;45.414;11.082;2023-02-20T12:48:40;56.40;;;29.10;;
77400;SDS011;66855;45.414;11.082;2023-02-20T12:59:30;53.30;;;25.40;;
77400;SDS011;66855;45.414;11.082;2023-02-20T13:02:17;53.40;;;27.00;;
77400;SDS011;66855;45.414;11.082;2023-02-20T13:05:08;53.90;;;26.50;;
77400;SDS011;66855;45.414;11.082;2023-02-20T13:07:40;51.40;;;27.10;;
77400;SDS011;66855;45.414;11.082;2023-02-20T13:10:12;49.20;;;25.50;;
77400;SDS011;66855;45.414;11.082;2023-02-20T13:12:42;49.00;;;26.30;;
77400;SDS011;66855;45.414;11.082;2023-02-20T13:18:13;46.20;;;22.40;;
77400;SDS011;66855;45.414;11.082;2023-02-20T13:20:56;45.10;;;22.90;;
77400;SDS011;66855;45.414;11.082;2023-02-20T13:23:27;46.60;;;21.90;;
77400;SDS011;66855;45.414;11.082;2023-02-20T13:25:56;45.00;;;24.30;;
77400;SDS011;66855;45.414;11.082;2023-02-20T13:28:39;43.00;;;21.90;;
77400;SDS011;66855;45.414;11.082;2023-02-20T13:33:43;46.10;;;22.50;;
77400;SDS011;66855;45.414;11.082;2023-02-20T13:36:35;45.30;;;22.60;;
77400;SDS011;66855;45.414;11.082;2023-02-20T13:47:02;45.20;;;22.60;;
77400;SDS011;66855;45.414;11.082;2023-02-20T13:57:45;44.80;;;23.20;;
77400;SDS011;66855;45.414;11.082;2023-02-20T14:00:23;47.30;;;23.10;;
77400;SDS011;66855;45.414;11.082;2023-02-20T14:02:51;50.30;;;24.80;;
77400;SDS011;66855;45.414;11.082;2023-02-20T14:05:23;55.20;;;25.90;;
77400;SDS011;66855;45.414;11.082;2023-02-20T14:07:52;51.00;;;24.80;;
77400;SDS011;66855;45.414;11.082;2023-02-20T14:10:30;48.10;;;25.00;;
77400;SDS011;66855;45.414;11.082;2023-02-20T14:13:12;52.90;;;26.10;;
77400;SDS011;66855;45.414;11.082;2023-02-20T14:15:53;53.40;;;25.70;;
77400;SDS011;66855;45.414;11.082;2023-02-20T14:18:26;52.70;;;26.80;;
77400;SDS011;66855;45.414;11.082;2023-02-20T14:21:14;52.30;;;26.90;;
77400;SDS011;66855;45.414;11.082;2023-02-20T14:23:45;52.30;;;26.00;;
77400;SDS011;66855;45.414;11.082;2023-02-20T14:26:18;56.80;;;27.90;;
77400;SDS011;66855;45.414;11.082;2023-02-20T14:28:51;53.50;;;26.80;;
77400;SDS011;66855;45.414;11.082;2023-02-20T14:31:20;54.50;;;26.40;;
77400;SDS011;66855;45.414;11.082;2023-02-20T14:33:50;53.30;;;26.00;;
77400;SDS011;66855;45.414;11.082;2023-02-20T14:41:56;64.00;;;30.20;;
77400;SDS011;66855;45.414;11.082;2023-02-20T14:44:24;64.20;;;31.00;;
77400;SDS011;66855;45.414;11.082;2023-02-20T14:46:52;64.60;;;32.70;;
77400;SDS011;66855;45.414;11.082;2023-02-20T14:49:23;62.40;;;30.70;;
77400;SDS011;66855;45.414;11.082;2023-02-20T14:52:02;71.80;;;32.50;;
77400;SDS011;66855;45.414;11.082;2023-02-20T14:54:41;69.30;;;32.90;;
77400;SDS011;66855;45.414;11.082;2023-02-20T14:57:13;69.10;;;32.50;;
77400;SDS011;66855;45.414;11.082;2023-02-20T14:59:41;67.40;;;33.30;;
77400;SDS011;66855;45.414;11.082;2023-02-20T15:02:21;74.30;;;34.40;;
77400;SDS011;66855;45.414;11.082;2023-02-20T15:05:01;67.80;;;33.40;;
77400;SDS011;66855;45.414;11.082;2023-02-20T15:07:30;74.70;;;35.90;;
77400;SDS011;66855;45.414;11.082;2023-02-20T15:09:57;72.70;;;35.40;;
77400;SDS011;66855;45.414;11.082;2023-02-20T15:12:37;77.60;;;37.30;;
77400;SDS011;66855;45.414;11.082;2023-02-20T15:15:06;71.20;;;33.00;;
77400;SDS011;66855;45.414;11.082;2023-02-20T15:17:35;73.10;;;34.10;;
77400;SDS011;66855;45.414;11.082;2023-02-20T15:20:17;70.20;;;33.10;;
77400;SDS011;66855;45.414;11.082;2023-02-20T15:23:23;74.80;;;35.40;;
77400;SDS011;66855;45.414;11.082;2023-02-20T15:25:53;73.40;;;35.20;;
77400;SDS011;66855;45.414;11.082;2023-02-20T15:33:35;75.90;;;34.60;;
77400;SDS011;66855;45.414;11.082;2023-02-20T15:36:04;78.10;;;35.40;;
77400;SDS011;66855;45.414;11.082;2023-02-20T15:38:33;73.80;;;33.70;;
77400;SDS011;66855;45.414;11.082;2023-02-20T15:41:01;72.40;;;34.50;;
77400;SDS011;66855;45.414;11.082;2023-02-20T15:43:29;74.70;;;35.30;;
77400;SDS011;66855;45.414;11.082;2023-02-20T15:46:15;70.90;;;33.70;;
77400;SDS011;66855;45.414;11.082;2023-02-20T15:48:43;72.30;;;33.00;;
77400;SDS011;66855;45.414;11.082;2023-02-20T15:51:10;74.90;;;35.20;;
77400;SDS011;66855;45.414;11.082;2023-02-20T15:53:40;73.90;;;36.00;;
77400;SDS011;66855;45.414;11.082;2023-02-20T15:56:09;76.90;;;34.40;;
77400;SDS011;66855;45.414;11.082;2023-02-20T15:58:37;74.00;;;34.40;;
77400;SDS011;66855;45.414;11.082;2023-02-20T16:01:05;73.10;;;35.00;;
77400;SDS011;66855;45.414;11.082;2023-02-20T16:03:32;76.30;;;35.00;;
77400;SDS011;66855;45.414;11.082;2023-02-20T16:06:17;73.30;;;33.80;;
77400;SDS011;66855;45.414;11.082;2023-02-20T16:08:45;69.60;;;33.40;;
77400;SDS011;66855;45.414;11.082;2023-02-20T16:11:12;69.70;;;34.00;;
77400;SDS011;66855;45.414;11.082;2023-02-20T16:13:40;76.10;;;34.70;;
77400;SDS011;66855;45.414;11.082;2023-02-20T16:16:20;73.30;;;33.80;;
77400;SDS011;66855;45.414;11.082;2023-02-20T16:18:50;70.20;;;32.00;;
77400;SDS011;66855;45.414;11.082;2023-02-20T16:21:20;71.90;;;33.80;;
77400;SDS011;66855;45.414;11.082;2023-02-20T16:23:48;70.30;;;32.30;;
77400;SDS011;66855;45.414;11.082;2023-02-20T16:26:16;72.40;;;34.70;;